sensor_id;sensor_type;location;lat;lon;timestamp;P1;durP1;ratioP1;P2;durP2;ratioP2
33836;SDS011;20140;49.356;8.812;2024-03-02T00:00:20;5.33;;;4.27;;
33836;SDS011;20140;49.356;8.812;2024-03-02T00:02:50;4.72;;;4.28;;
33836;SDS011;20140;49.356;8.812;2024-03-02T00:05:16;5.03;;;4.20;;
33836;SDS011;20140;49.356;8.812;2024-03-02T00:07:44;5.60;;;4.47;;
33836;SDS011;20140;49.356;8.812;2024-03-02T00:10:20;5.22;;;4.10;;
33836;SDS011;20140;49.356;8.812;2024-03-02T00:12:54;6.40;;;4.87;;
33836;SDS011;20140;49.356;8.812;2024-03-02T00:17:59;6.57;;;4.38;;
33836;SDS011;20140;49.356;8.812;2024-03-02T00:20:24;7.73;;;4.23;;
33836;SDS011;20140;49.356;8.812;2024-03-02T00:23:03;4.88;;;3.42;;
33836;SDS011;20140;49.356;8.812;2024-03-02T00:25:49;6.88;;;4.53;;
33836;SDS011;20140;49.356;8.812;2024-03-02T00:30:57;5.03;;;4.38;;
33836;SDS011;20140;49.356;8.812;2024-03-02T00:33:34;5.50;;;3.60;;
33836;SDS011;20140;49.356;8.812;2024-03-02T00:36:04;5.20;;;4.00;;
33836;SDS011;20140;49.356;8.812;2024-03-02T00:38:31;6.35;;;3.95;;
33836;SDS011;20140;49.356;8.812;2024-03-02T00:40:58;7.77;;;4.53;;
33836;SDS011;20140;49.356;8.812;2024-03-02T00:46:06;5.10;;;4.30;;
33836;SDS011;20140;49.356;8.812;2024-03-02T00:48:31;5.15;;;3.75;;
33836;SDS011;20140;49.356;8.812;2024-03-02T00:51:00;4.75;;;4.05;;
33836;SDS011;20140;49.356;8.812;2024-03-02T00:53:28;7.00;;;5.07;;
33836;SDS011;20140;49.356;8.812;2024-03-02T00:55:56;7.40;;;5.28;;
33836;SDS011;20140;49.356;8.812;2024-03-02T00:58:21;5.30;;;4.60;;
33836;SDS011;20140;49.356;8.812;2024-03-02T01:00:47;7.18;;;5.20;;
33836;SDS011;20140;49.356;8.812;2024-03-02T01:03:12;5.80;;;5.25;;
33836;SDS011;20140;49.356;8.812;2024-03-02T01:05:41;7.37;;;5.33;;
33836;SDS011;20140;49.356;8.812;2024-03-02T01:08:07;7.30;;;4.88;;
33836;SDS011;20140;49.356;8.812;2024-03-02T01:10:33;6.97;;;5.32;;
33836;SDS011;20140;49.356;8.812;2024-03-02T01:12:59;5.97;;;4.90;;
33836;SDS011;20140;49.356;8.812;2024-03-02T01:15:24;6.67;;;4.87;;
33836;SDS011;20140;49.356;8.812;2024-03-02T01:17:50;6.90;;;5.30;;
33836;SDS011;20140;49.356;8.812;2024-03-02T01:20:15;6.63;;;5.18;;
33836;SDS011;20140;49.356;8.812;2024-03-02T01:22:41;6.28;;;4.93;;
33836;SDS011;20140;49.356;8.812;2024-03-02T01:25:08;7.27;;;4.93;;
33836;SDS011;20140;49.356;8.812;2024-03-02T01:27:33;5.82;;;4.35;;
33836;SDS011;20140;49.356;8.812;2024-03-02T01:29:59;6.00;;;4.97;;
33836;SDS011;20140;49.356;8.812;2024-03-02T01:32:24;5.10;;;3.97;;
33836;SDS011;20140;49.356;8.812;2024-03-02T01:34:50;6.07;;;4.67;;
33836;SDS011;20140;49.356;8.812;2024-03-02T01:37:16;5.50;;;5.00;;
33836;SDS011;20140;49.356;8.812;2024-03-02T01:39:41;5.87;;;4.80;;
33836;SDS011;20140;49.356;8.812;2024-03-02T01:42:07;7.22;;;4.90;;
33836;SDS011;20140;49.356;8.812;2024-03-02T01:44:32;6.13;;;4.63;;
33836;SDS011;20140;49.356;8.812;2024-03-02T01:46:58;5.82;;;4.65;;
33836;SDS011;20140;49.356;8.812;2024-03-02T01:49:23;12.60;;;5.18;;
33836;SDS011;20140;49.356;8.812;2024-03-02T01:51:49;6.83;;;5.53;;
33836;SDS011;20140;49.356;8.812;2024-03-02T01:54:14;5.23;;;4.50;;
33836;SDS011;20140;49.356;8.812;2024-03-02T01:56:40;7.90;;;5.20;;
33836;SDS011;20140;49.356;8.812;2024-03-02T01:59:06;6.33;;;5.00;;
33836;SDS011;20140;49.356;8.812;2024-03-02T02:01:31;6.43;;;5.03;;
33836;SDS011;20140;49.356;8.812;2024-03-02T02:03:57;7.17;;;5.97;;
33836;SDS011;20140;49.356;8.812;2024-03-02T02:06:22;8.07;;;5.97;;
33836;SDS011;20140;49.356;8.812;2024-03-02T02:08:48;5.20;;;4.22;;
33836;SDS011;20140;49.356;8.812;2024-03-02T02:11:16;6.25;;;5.28;;
33836;SDS011;20140;49.356;8.812;2024-03-02T02:13:42;7.70;;;6.20;;
33836;SDS011;20140;49.356;8.812;2024-03-02T02:16:08;8.15;;;5.68;;
33836;SDS011;20140;49.356;8.812;2024-03-02T02:18:34;8.40;;;6.50;;
33836;SDS011;20140;49.356;8.812;2024-03-02T02:21:00;8.85;;;6.20;;
33836;SDS011;20140;49.356;8.812;2024-03-02T02:23:26;7.50;;;6.07;;
33836;SDS011;20140;49.356;8.812;2024-03-02T02:25:52;8.63;;;5.70;;
33836;SDS011;20140;49.356;8.812;2024-03-02T02:28:17;9.23;;;5.90;;
33836;SDS011;20140;49.356;8.812;2024-03-02T02:30:43;7.07;;;5.35;;
33836;SDS011;20140;49.356;8.812;2024-03-02T02:33:08;5.50;;;4.55;;
33836;SDS011;20140;49.356;8.812;2024-03-02T02:35:34;6.00;;;5.13;;
33836;SDS011;20140;49.356;8.812;2024-03-02T02:38:00;6.60;;;5.05;;
33836;SDS011;20140;49.356;8.812;2024-03-02T02:40:26;6.60;;;5.15;;
33836;SDS011;20140;49.356;8.812;2024-03-02T02:42:51;8.20;;;6.00;;
33836;SDS011;20140;49.356;8.812;2024-03-02T02:45:17;10.70;;;6.93;;
33836;SDS011;20140;49.356;8.812;2024-03-02T02:47:43;9.57;;;7.22;;
33836;SDS011;20140;49.356;8.812;2024-03-02T02:50:10;8.88;;;6.25;;
33836;SDS011;20140;49.356;8.812;2024-03-02T02:52:37;7.78;;;6.20;;
33836;SDS011;20140;49.356;8.812;2024-03-02T02:55:05;7.00;;;5.57;;
33836;SDS011;20140;49.356;8.812;2024-03-02T02:57:32;6.53;;;5.37;;
33836;SDS011;20140;49.356;8.812;2024-03-02T03:00:04;8.30;;;5.43;;
33836;SDS011;20140;49.356;8.812;2024-03-02T03:02:34;6.68;;;5.65;;
33836;SDS011;20140;49.356;8.812;2024-03-02T03:05:04;9.02;;;6.25;;
33836;SDS011;20140;49.356;8.812;2024-03-02T03:07:31;7.10;;;5.38;;
33836;SDS011;20140;49.356;8.812;2024-03-02T03:09:56;9.50;;;6.47;;
33836;SDS011;20140;49.356;8.812;2024-03-02T03:12:22;9.82;;;6.80;;
33836;SDS011;20140;49.356;8.812;2024-03-02T03:14:48;7.87;;;6.13;;
33836;SDS011;20140;49.356;8.812;2024-03-02T03:17:14;8.18;;;6.93;;
33836;SDS011;20140;49.356;8.812;2024-03-02T03:19:40;12.38;;;7.32;;
33836;SDS011;20140;49.356;8.812;2024-03-02T03:22:06;9.70;;;6.65;;
33836;SDS011;20140;49.356;8.812;2024-03-02T03:24:32;9.70;;;6.68;;
33836;SDS011;20140;49.356;8.812;2024-03-02T03:26:58;11.35;;;7.18;;
33836;SDS011;20140;49.356;8.812;2024-03-02T03:29:24;8.27;;;6.75;;
33836;SDS011;20140;49.356;8.812;2024-03-02T03:31:50;10.10;;;7.03;;
33836;SDS011;20140;49.356;8.812;2024-03-02T03:34:16;8.55;;;6.78;;
33836;SDS011;20140;49.356;8.812;2024-03-02T03:36:42;8.25;;;6.20;;
33836;SDS011;20140;49.356;8.812;2024-03-02T03:39:08;8.48;;;6.90;;
33836;SDS011;20140;49.356;8.812;2024-03-02T03:41:34;7.73;;;5.33;;
33836;SDS011;20140;49.356;8.812;2024-03-02T03:44:00;8.43;;;5.53;;
33836;SDS011;20140;49.356;8.812;2024-03-02T03:46:26;9.38;;;6.25;;
33836;SDS011;20140;49.356;8.812;2024-03-02T03:48:52;7.63;;;5.43;;
33836;SDS011;20140;49.356;8.812;2024-03-02T03:51:18;7.22;;;6.38;;
33836;SDS011;20140;49.356;8.812;2024-03-02T03:53:44;7.40;;;5.53;;
33836;SDS011;20140;49.356;8.812;2024-03-02T03:56:10;8.48;;;5.95;;
33836;SDS011;20140;49.356;8.812;2024-03-02T03:58:36;7.13;;;5.73;;
33836;SDS011;20140;49.356;8.812;2024-03-02T04:01:02;8.75;;;6.57;;
33836;SDS011;20140;49.356;8.812;2024-03-02T04:03:28;7.75;;;6.15;;
33836;SDS011;20140;49.356;8.812;2024-03-02T04:05:53;7.57;;;5.25;;
33836;SDS011;20140;49.356;8.812;2024-03-02T04:08:19;8.07;;;5.90;;
33836;SDS011;20140;49.356;8.812;2024-03-02T04:10:44;7.68;;;5.70;;
33836;SDS011;20140;49.356;8.812;2024-03-02T04:13:10;10.33;;;5.97;;
33836;SDS011;20140;49.356;8.812;2024-03-02T04:15:35;6.40;;;5.80;;
33836;SDS011;20140;49.356;8.812;2024-03-02T04:18:01;9.07;;;6.63;;
33836;SDS011;20140;49.356;8.812;2024-03-02T04:20:26;6.87;;;5.93;;
33836;SDS011;20140;49.356;8.812;2024-03-02T04:22:52;9.38;;;6.93;;
33836;SDS011;20140;49.356;8.812;2024-03-02T04:25:17;8.57;;;6.15;;
33836;SDS011;20140;49.356;8.812;2024-03-02T04:27:43;6.72;;;5.63;;
33836;SDS011;20140;49.356;8.812;2024-03-02T04:30:08;7.20;;;5.73;;
33836;SDS011;20140;49.356;8.812;2024-03-02T04:32:34;7.07;;;5.80;;
33836;SDS011;20140;49.356;8.812;2024-03-02T04:35:01;8.32;;;5.50;;
33836;SDS011;20140;49.356;8.812;2024-03-02T04:37:26;6.93;;;5.20;;
33836;SDS011;20140;49.356;8.812;2024-03-02T04:39:52;6.80;;;5.63;;
33836;SDS011;20140;49.356;8.812;2024-03-02T04:42:17;6.27;;;5.23;;
33836;SDS011;20140;49.356;8.812;2024-03-02T04:44:43;6.67;;;5.30;;
33836;SDS011;20140;49.356;8.812;2024-03-02T04:47:08;5.82;;;5.22;;
33836;SDS011;20140;49.356;8.812;2024-03-02T04:49:34;6.45;;;5.32;;
33836;SDS011;20140;49.356;8.812;2024-03-02T04:51:59;7.47;;;5.40;;
33836;SDS011;20140;49.356;8.812;2024-03-02T04:54:25;8.97;;;6.37;;
33836;SDS011;20140;49.356;8.812;2024-03-02T04:56:51;8.15;;;6.05;;
33836;SDS011;20140;49.356;8.812;2024-03-02T04:59:16;8.20;;;6.30;;
33836;SDS011;20140;49.356;8.812;2024-03-02T05:01:43;7.75;;;5.63;;
33836;SDS011;20140;49.356;8.812;2024-03-02T05:04:09;7.85;;;5.38;;
33836;SDS011;20140;49.356;8.812;2024-03-02T05:06:36;9.67;;;7.27;;
33836;SDS011;20140;49.356;8.812;2024-03-02T05:09:03;7.20;;;5.55;;
33836;SDS011;20140;49.356;8.812;2024-03-02T05:11:28;5.45;;;4.82;;
33836;SDS011;20140;49.356;8.812;2024-03-02T05:14:09;8.75;;;6.25;;
33836;SDS011;20140;49.356;8.812;2024-03-02T05:16:35;8.32;;;5.43;;
33836;SDS011;20140;49.356;8.812;2024-03-02T05:19:03;6.15;;;4.97;;
33836;SDS011;20140;49.356;8.812;2024-03-02T05:21:31;6.32;;;5.05;;
33836;SDS011;20140;49.356;8.812;2024-03-02T05:23:57;6.15;;;4.93;;
33836;SDS011;20140;49.356;8.812;2024-03-02T05:26:23;6.90;;;5.18;;
33836;SDS011;20140;49.356;8.812;2024-03-02T05:28:50;6.28;;;4.90;;
33836;SDS011;20140;49.356;8.812;2024-03-02T05:31:16;6.00;;;5.38;;
33836;SDS011;20140;49.356;8.812;2024-03-02T05:33:42;5.97;;;4.25;;
33836;SDS011;20140;49.356;8.812;2024-03-02T05:36:08;6.05;;;4.78;;
33836;SDS011;20140;49.356;8.812;2024-03-02T05:38:36;6.87;;;5.03;;
33836;SDS011;20140;49.356;8.812;2024-03-02T05:41:02;5.83;;;5.20;;
33836;SDS011;20140;49.356;8.812;2024-03-02T05:43:28;6.50;;;5.00;;
33836;SDS011;20140;49.356;8.812;2024-03-02T05:45:54;6.38;;;5.05;;
33836;SDS011;20140;49.356;8.812;2024-03-02T05:48:19;6.40;;;5.10;;
33836;SDS011;20140;49.356;8.812;2024-03-02T05:50:45;6.72;;;4.70;;
33836;SDS011;20140;49.356;8.812;2024-03-02T05:53:10;6.27;;;4.90;;
33836;SDS011;20140;49.356;8.812;2024-03-02T05:55:36;5.37;;;4.53;;
33836;SDS011;20140;49.356;8.812;2024-03-02T05:58:01;6.53;;;5.37;;
33836;SDS011;20140;49.356;8.812;2024-03-02T06:00:45;6.53;;;4.47;;
33836;SDS011;20140;49.356;8.812;2024-03-02T06:03:11;5.70;;;4.90;;
33836;SDS011;20140;49.356;8.812;2024-03-02T06:05:36;5.43;;;4.82;;
33836;SDS011;20140;49.356;8.812;2024-03-02T06:08:02;5.70;;;4.97;;
33836;SDS011;20140;49.356;8.812;2024-03-02T06:10:28;7.17;;;5.57;;
33836;SDS011;20140;49.356;8.812;2024-03-02T06:12:53;8.43;;;6.20;;
33836;SDS011;20140;49.356;8.812;2024-03-02T06:15:19;5.67;;;4.77;;
33836;SDS011;20140;49.356;8.812;2024-03-02T06:17:44;5.33;;;4.53;;
33836;SDS011;20140;49.356;8.812;2024-03-02T06:20:10;6.87;;;5.53;;
33836;SDS011;20140;49.356;8.812;2024-03-02T06:22:35;6.60;;;5.13;;
33836;SDS011;20140;49.356;8.812;2024-03-02T06:25:01;6.43;;;4.73;;
33836;SDS011;20140;49.356;8.812;2024-03-02T06:27:30;7.75;;;5.63;;
33836;SDS011;20140;49.356;8.812;2024-03-02T06:29:55;9.23;;;5.68;;
33836;SDS011;20140;49.356;8.812;2024-03-02T06:32:21;5.75;;;4.70;;
33836;SDS011;20140;49.356;8.812;2024-03-02T06:34:48;6.90;;;5.45;;
33836;SDS011;20140;49.356;8.812;2024-03-02T06:37:13;7.63;;;6.23;;
33836;SDS011;20140;49.356;8.812;2024-03-02T06:39:40;8.48;;;6.25;;
33836;SDS011;20140;49.356;8.812;2024-03-02T06:42:05;7.38;;;6.03;;
33836;SDS011;20140;49.356;8.812;2024-03-02T06:44:31;9.25;;;6.45;;
33836;SDS011;20140;49.356;8.812;2024-03-02T06:46:56;7.47;;;6.00;;
33836;SDS011;20140;49.356;8.812;2024-03-02T06:49:22;7.93;;;6.10;;
33836;SDS011;20140;49.356;8.812;2024-03-02T06:51:47;7.07;;;5.10;;
33836;SDS011;20140;49.356;8.812;2024-03-02T06:54:12;6.77;;;5.93;;
33836;SDS011;20140;49.356;8.812;2024-03-02T06:56:38;8.75;;;5.68;;
33836;SDS011;20140;49.356;8.812;2024-03-02T06:59:04;7.13;;;6.43;;
33836;SDS011;20140;49.356;8.812;2024-03-02T07:01:29;13.48;;;10.52;;
33836;SDS011;20140;49.356;8.812;2024-03-02T07:03:55;10.38;;;8.32;;
33836;SDS011;20140;49.356;8.812;2024-03-02T07:06:20;6.70;;;5.90;;
33836;SDS011;20140;49.356;8.812;2024-03-02T07:08:46;9.03;;;7.07;;
33836;SDS011;20140;49.356;8.812;2024-03-02T07:11:11;7.30;;;6.50;;
33836;SDS011;20140;49.356;8.812;2024-03-02T07:13:37;7.30;;;6.00;;
33836;SDS011;20140;49.356;8.812;2024-03-02T07:16:02;7.27;;;5.80;;
33836;SDS011;20140;49.356;8.812;2024-03-02T07:18:28;8.70;;;7.63;;
33836;SDS011;20140;49.356;8.812;2024-03-02T07:20:55;8.60;;;7.05;;
33836;SDS011;20140;49.356;8.812;2024-03-02T07:23:23;10.20;;;7.15;;
33836;SDS011;20140;49.356;8.812;2024-03-02T07:25:52;9.32;;;7.10;;
33836;SDS011;20140;49.356;8.812;2024-03-02T07:28:19;9.35;;;6.97;;
33836;SDS011;20140;49.356;8.812;2024-03-02T07:30:45;8.30;;;6.47;;
33836;SDS011;20140;49.356;8.812;2024-03-02T07:33:11;7.90;;;6.83;;
33836;SDS011;20140;49.356;8.812;2024-03-02T07:35:36;7.57;;;6.00;;
33836;SDS011;20140;49.356;8.812;2024-03-02T07:38:02;8.57;;;6.55;;
33836;SDS011;20140;49.356;8.812;2024-03-02T07:40:28;6.75;;;5.70;;
33836;SDS011;20140;49.356;8.812;2024-03-02T07:42:54;8.40;;;6.17;;
33836;SDS011;20140;49.356;8.812;2024-03-02T07:45:20;6.95;;;5.75;;
33836;SDS011;20140;49.356;8.812;2024-03-02T07:47:45;7.93;;;5.97;;
33836;SDS011;20140;49.356;8.812;2024-03-02T07:50:11;7.63;;;5.50;;
33836;SDS011;20140;49.356;8.812;2024-03-02T07:52:37;7.93;;;5.97;;
33836;SDS011;20140;49.356;8.812;2024-03-02T07:55:02;8.30;;;5.25;;
33836;SDS011;20140;49.356;8.812;2024-03-02T07:57:28;5.35;;;4.78;;
33836;SDS011;20140;49.356;8.812;2024-03-02T07:59:54;7.18;;;5.38;;
33836;SDS011;20140;49.356;8.812;2024-03-02T08:02:19;6.53;;;5.22;;
33836;SDS011;20140;49.356;8.812;2024-03-02T08:04:45;8.25;;;5.80;;
33836;SDS011;20140;49.356;8.812;2024-03-02T08:07:11;7.00;;;5.30;;
33836;SDS011;20140;49.356;8.812;2024-03-02T08:09:36;6.65;;;5.38;;
33836;SDS011;20140;49.356;8.812;2024-03-02T08:12:02;7.00;;;5.60;;
33836;SDS011;20140;49.356;8.812;2024-03-02T08:14:28;9.02;;;7.03;;
33836;SDS011;20140;49.356;8.812;2024-03-02T08:16:53;8.23;;;6.40;;
33836;SDS011;20140;49.356;8.812;2024-03-02T08:19:19;7.60;;;5.97;;
33836;SDS011;20140;49.356;8.812;2024-03-02T08:21:44;9.07;;;5.53;;
33836;SDS011;20140;49.356;8.812;2024-03-02T08:24:10;5.97;;;5.20;;
33836;SDS011;20140;49.356;8.812;2024-03-02T08:26:36;6.13;;;5.53;;
33836;SDS011;20140;49.356;8.812;2024-03-02T08:29:01;8.40;;;5.87;;
33836;SDS011;20140;49.356;8.812;2024-03-02T08:31:28;7.65;;;5.72;;
33836;SDS011;20140;49.356;8.812;2024-03-02T08:33:54;7.63;;;6.53;;
33836;SDS011;20140;49.356;8.812;2024-03-02T08:36:19;6.83;;;6.07;;
33836;SDS011;20140;49.356;8.812;2024-03-02T08:38:45;7.47;;;5.77;;
33836;SDS011;20140;49.356;8.812;2024-03-02T08:41:11;7.13;;;5.53;;
33836;SDS011;20140;49.356;8.812;2024-03-02T08:43:39;8.40;;;5.88;;
33836;SDS011;20140;49.356;8.812;2024-03-02T08:46:06;6.38;;;5.57;;
33836;SDS011;20140;49.356;8.812;2024-03-02T08:48:31;7.20;;;6.03;;
33836;SDS011;20140;49.356;8.812;2024-03-02T08:50:57;11.25;;;6.32;;
33836;SDS011;20140;49.356;8.812;2024-03-02T08:53:22;7.68;;;6.00;;
33836;SDS011;20140;49.356;8.812;2024-03-02T08:55:48;7.60;;;6.53;;
33836;SDS011;20140;49.356;8.812;2024-03-02T08:58:14;7.40;;;5.97;;
33836;SDS011;20140;49.356;8.812;2024-03-02T09:00:39;8.13;;;5.97;;
33836;SDS011;20140;49.356;8.812;2024-03-02T09:03:05;8.80;;;6.70;;
33836;SDS011;20140;49.356;8.812;2024-03-02T09:05:31;11.40;;;7.55;;
33836;SDS011;20140;49.356;8.812;2024-03-02T09:07:56;11.77;;;8.77;;
33836;SDS011;20140;49.356;8.812;2024-03-02T09:10:22;10.77;;;7.63;;
33836;SDS011;20140;49.356;8.812;2024-03-02T09:12:47;10.65;;;8.50;;
33836;SDS011;20140;49.356;8.812;2024-03-02T09:15:13;13.90;;;9.17;;
33836;SDS011;20140;49.356;8.812;2024-03-02T09:17:38;12.07;;;9.27;;
33836;SDS011;20140;49.356;8.812;2024-03-02T09:20:05;12.60;;;8.43;;
33836;SDS011;20140;49.356;8.812;2024-03-02T09:22:30;11.38;;;7.53;;
33836;SDS011;20140;49.356;8.812;2024-03-02T09:24:57;11.07;;;7.90;;
33836;SDS011;20140;49.356;8.812;2024-03-02T09:27:23;10.40;;;7.43;;
33836;SDS011;20140;49.356;8.812;2024-03-02T09:29:48;9.77;;;6.90;;
33836;SDS011;20140;49.356;8.812;2024-03-02T09:32:14;10.10;;;7.57;;
33836;SDS011;20140;49.356;8.812;2024-03-02T09:34:40;9.63;;;7.15;;
33836;SDS011;20140;49.356;8.812;2024-03-02T09:37:06;7.70;;;6.18;;
33836;SDS011;20140;49.356;8.812;2024-03-02T09:39:32;8.70;;;6.73;;
33836;SDS011;20140;49.356;8.812;2024-03-02T09:41:57;9.27;;;6.00;;
33836;SDS011;20140;49.356;8.812;2024-03-02T09:44:24;8.75;;;5.82;;
33836;SDS011;20140;49.356;8.812;2024-03-02T09:46:51;7.40;;;5.95;;
33836;SDS011;20140;49.356;8.812;2024-03-02T09:49:16;8.18;;;5.97;;
33836;SDS011;20140;49.356;8.812;2024-03-02T09:51:46;7.33;;;5.60;;
33836;SDS011;20140;49.356;8.812;2024-03-02T09:54:12;7.90;;;5.72;;
33836;SDS011;20140;49.356;8.812;2024-03-02T09:56:38;8.73;;;5.60;;
33836;SDS011;20140;49.356;8.812;2024-03-02T09:59:04;9.07;;;6.18;;
33836;SDS011;20140;49.356;8.812;2024-03-02T10:01:30;7.25;;;5.50;;
33836;SDS011;20140;49.356;8.812;2024-03-02T10:03:58;7.22;;;5.53;;
33836;SDS011;20140;49.356;8.812;2024-03-02T10:06:25;6.40;;;5.30;;
33836;SDS011;20140;49.356;8.812;2024-03-02T10:08:52;7.47;;;5.70;;
33836;SDS011;20140;49.356;8.812;2024-03-02T10:11:32;7.40;;;5.35;;
33836;SDS011;20140;49.356;8.812;2024-03-02T10:16:38;9.17;;;4.53;;
33836;SDS011;20140;49.356;8.812;2024-03-02T10:19:17;10.73;;;5.47;;
33836;SDS011;20140;49.356;8.812;2024-03-02T10:21:47;6.95;;;5.22;;
33836;SDS011;20140;49.356;8.812;2024-03-02T10:24:17;7.43;;;4.83;;
33836;SDS011;20140;49.356;8.812;2024-03-02T10:26:43;7.35;;;4.43;;
33836;SDS011;20140;49.356;8.812;2024-03-02T10:29:09;5.93;;;5.00;;
33836;SDS011;20140;49.356;8.812;2024-03-02T10:31:45;6.47;;;4.70;;
33836;SDS011;20140;49.356;8.812;2024-03-02T10:34:12;5.33;;;4.17;;
33836;SDS011;20140;49.356;8.812;2024-03-02T10:36:40;6.67;;;4.70;;
33836;SDS011;20140;49.356;8.812;2024-03-02T10:39:07;5.90;;;4.88;;
33836;SDS011;20140;49.356;8.812;2024-03-02T10:41:37;5.43;;;4.32;;
33836;SDS011;20140;49.356;8.812;2024-03-02T10:44:06;5.60;;;4.40;;
33836;SDS011;20140;49.356;8.812;2024-03-02T10:46:34;4.60;;;3.90;;
33836;SDS011;20140;49.356;8.812;2024-03-02T10:49:01;5.10;;;4.20;;
33836;SDS011;20140;49.356;8.812;2024-03-02T10:51:29;5.38;;;4.57;;
33836;SDS011;20140;49.356;8.812;2024-03-02T10:54:01;4.93;;;4.13;;
33836;SDS011;20140;49.356;8.812;2024-03-02T10:56:31;6.47;;;4.60;;
33836;SDS011;20140;49.356;8.812;2024-03-02T11:01:47;6.10;;;4.82;;
33836;SDS011;20140;49.356;8.812;2024-03-02T11:04:15;4.90;;;3.80;;
33836;SDS011;20140;49.356;8.812;2024-03-02T11:06:44;4.10;;;3.47;;
33836;SDS011;20140;49.356;8.812;2024-03-02T11:09:15;4.20;;;3.60;;
33836;SDS011;20140;49.356;8.812;2024-03-02T11:11:44;5.05;;;4.38;;
33836;SDS011;20140;49.356;8.812;2024-03-02T11:14:13;4.70;;;3.20;;
33836;SDS011;20140;49.356;8.812;2024-03-02T11:16:41;4.65;;;3.42;;
33836;SDS011;20140;49.356;8.812;2024-03-02T11:19:12;3.75;;;3.42;;
33836;SDS011;20140;49.356;8.812;2024-03-02T11:21:39;5.28;;;3.80;;
33836;SDS011;20140;49.356;8.812;2024-03-02T11:24:28;3.60;;;3.25;;
33836;SDS011;20140;49.356;8.812;2024-03-02T11:26:57;4.63;;;3.50;;
33836;SDS011;20140;49.356;8.812;2024-03-02T11:32:01;4.40;;;3.23;;
33836;SDS011;20140;49.356;8.812;2024-03-02T11:34:31;7.60;;;3.78;;
33836;SDS011;20140;49.356;8.812;2024-03-02T11:36:59;3.80;;;3.13;;
33836;SDS011;20140;49.356;8.812;2024-03-02T11:39:26;5.70;;;4.03;;
33836;SDS011;20140;49.356;8.812;2024-03-02T11:41:52;4.63;;;3.72;;
33836;SDS011;20140;49.356;8.812;2024-03-02T11:44:17;4.17;;;3.77;;
33836;SDS011;20140;49.356;8.812;2024-03-02T11:46:52;4.87;;;3.70;;
33836;SDS011;20140;49.356;8.812;2024-03-02T11:49:36;5.05;;;3.70;;
33836;SDS011;20140;49.356;8.812;2024-03-02T11:52:07;4.32;;;3.50;;
33836;SDS011;20140;49.356;8.812;2024-03-02T11:54:34;3.92;;;3.47;;
33836;SDS011;20140;49.356;8.812;2024-03-02T11:57:04;3.60;;;3.13;;
33836;SDS011;20140;49.356;8.812;2024-03-02T11:59:30;4.90;;;3.60;;
33836;SDS011;20140;49.356;8.812;2024-03-02T12:01:56;4.10;;;3.17;;
33836;SDS011;20140;49.356;8.812;2024-03-02T12:04:25;4.82;;;2.92;;
33836;SDS011;20140;49.356;8.812;2024-03-02T12:07:09;4.13;;;3.55;;
33836;SDS011;20140;49.356;8.812;2024-03-02T12:09:36;3.92;;;3.35;;
33836;SDS011;20140;49.356;8.812;2024-03-02T12:12:02;4.70;;;3.40;;
33836;SDS011;20140;49.356;8.812;2024-03-02T12:14:31;3.65;;;2.53;;
33836;SDS011;20140;49.356;8.812;2024-03-02T12:16:57;4.57;;;3.03;;
33836;SDS011;20140;49.356;8.812;2024-03-02T12:19:24;3.28;;;2.80;;
33836;SDS011;20140;49.356;8.812;2024-03-02T12:21:50;4.35;;;3.10;;
33836;SDS011;20140;49.356;8.812;2024-03-02T12:24:16;4.27;;;2.93;;
33836;SDS011;20140;49.356;8.812;2024-03-02T12:26:42;2.80;;;2.47;;
33836;SDS011;20140;49.356;8.812;2024-03-02T12:29:08;3.15;;;2.83;;
33836;SDS011;20140;49.356;8.812;2024-03-02T12:31:34;3.00;;;2.67;;
33836;SDS011;20140;49.356;8.812;2024-03-02T12:34:00;4.57;;;3.58;;
33836;SDS011;20140;49.356;8.812;2024-03-02T12:36:26;3.40;;;3.10;;
33836;SDS011;20140;49.356;8.812;2024-03-02T12:38:52;3.25;;;2.72;;
33836;SDS011;20140;49.356;8.812;2024-03-02T12:41:19;3.63;;;3.08;;
33836;SDS011;20140;49.356;8.812;2024-03-02T12:43:45;3.10;;;2.13;;
33836;SDS011;20140;49.356;8.812;2024-03-02T12:46:11;3.90;;;3.27;;
33836;SDS011;20140;49.356;8.812;2024-03-02T12:48:36;3.22;;;2.67;;
33836;SDS011;20140;49.356;8.812;2024-03-02T12:51:04;2.60;;;2.13;;
33836;SDS011;20140;49.356;8.812;2024-03-02T12:53:30;3.07;;;2.10;;
33836;SDS011;20140;49.356;8.812;2024-03-02T12:55:56;2.60;;;2.37;;
33836;SDS011;20140;49.356;8.812;2024-03-02T12:58:22;2.30;;;1.92;;
33836;SDS011;20140;49.356;8.812;2024-03-02T13:00:48;2.63;;;1.63;;
33836;SDS011;20140;49.356;8.812;2024-03-02T13:03:13;2.30;;;2.05;;
33836;SDS011;20140;49.356;8.812;2024-03-02T13:05:40;1.67;;;1.50;;
33836;SDS011;20140;49.356;8.812;2024-03-02T13:08:06;3.60;;;2.08;;
33836;SDS011;20140;49.356;8.812;2024-03-02T13:10:32;1.90;;;1.70;;
33836;SDS011;20140;49.356;8.812;2024-03-02T13:12:58;2.97;;;1.87;;
33836;SDS011;20140;49.356;8.812;2024-03-02T13:15:25;1.88;;;1.67;;
33836;SDS011;20140;49.356;8.812;2024-03-02T13:17:51;1.88;;;1.58;;
33836;SDS011;20140;49.356;8.812;2024-03-02T13:20:17;4.05;;;1.75;;
33836;SDS011;20140;49.356;8.812;2024-03-02T13:22:44;2.08;;;1.60;;
33836;SDS011;20140;49.356;8.812;2024-03-02T13:25:09;1.63;;;1.45;;
33836;SDS011;20140;49.356;8.812;2024-03-02T13:27:37;1.63;;;1.10;;
33836;SDS011;20140;49.356;8.812;2024-03-02T13:30:03;1.90;;;1.60;;
33836;SDS011;20140;49.356;8.812;2024-03-02T13:32:30;1.70;;;1.33;;
33836;SDS011;20140;49.356;8.812;2024-03-02T13:34:56;2.53;;;1.47;;
33836;SDS011;20140;49.356;8.812;2024-03-02T13:37:25;1.30;;;1.20;;
33836;SDS011;20140;49.356;8.812;2024-03-02T13:39:50;1.53;;;1.27;;
33836;SDS011;20140;49.356;8.812;2024-03-02T13:42:16;2.00;;;1.80;;
33836;SDS011;20140;49.356;8.812;2024-03-02T13:44:44;1.47;;;1.20;;
33836;SDS011;20140;49.356;8.812;2024-03-02T13:47:15;1.85;;;1.40;;
33836;SDS011;20140;49.356;8.812;2024-03-02T13:49:41;5.72;;;1.60;;
33836;SDS011;20140;49.356;8.812;2024-03-02T13:52:11;2.25;;;0.90;;
33836;SDS011;20140;49.356;8.812;2024-03-02T13:54:40;2.08;;;1.30;;
33836;SDS011;20140;49.356;8.812;2024-03-02T13:57:07;0.98;;;0.88;;
33836;SDS011;20140;49.356;8.812;2024-03-02T13:59:33;1.13;;;0.90;;
33836;SDS011;20140;49.356;8.812;2024-03-02T14:02:02;1.25;;;0.98;;
33836;SDS011;20140;49.356;8.812;2024-03-02T14:04:30;1.08;;;0.90;;
33836;SDS011;20140;49.356;8.812;2024-03-02T14:06:56;0.97;;;0.70;;
33836;SDS011;20140;49.356;8.812;2024-03-02T14:09:22;1.15;;;0.73;;
33836;SDS011;20140;49.356;8.812;2024-03-02T14:11:49;0.90;;;0.70;;
33836;SDS011;20140;49.356;8.812;2024-03-02T14:14:15;0.85;;;0.60;;
33836;SDS011;20140;49.356;8.812;2024-03-02T14:16:41;0.57;;;0.50;;
33836;SDS011;20140;49.356;8.812;2024-03-02T14:19:06;1.37;;;0.57;;
33836;SDS011;20140;49.356;8.812;2024-03-02T14:21:32;0.63;;;0.50;;
33836;SDS011;20140;49.356;8.812;2024-03-02T14:23:58;0.60;;;0.40;;
33836;SDS011;20140;49.356;8.812;2024-03-02T14:26:24;1.47;;;0.90;;
33836;SDS011;20140;49.356;8.812;2024-03-02T14:28:49;1.42;;;0.90;;
33836;SDS011;20140;49.356;8.812;2024-03-02T14:31:15;1.83;;;1.17;;
33836;SDS011;20140;49.356;8.812;2024-03-02T14:33:41;1.58;;;0.63;;
33836;SDS011;20140;49.356;8.812;2024-03-02T14:36:07;0.55;;;0.52;;
33836;SDS011;20140;49.356;8.812;2024-03-02T14:38:33;0.87;;;0.73;;
33836;SDS011;20140;49.356;8.812;2024-03-02T14:40:58;1.30;;;0.85;;
33836;SDS011;20140;49.356;8.812;2024-03-02T14:43:24;0.73;;;0.63;;
33836;SDS011;20140;49.356;8.812;2024-03-02T14:45:49;1.23;;;0.80;;
33836;SDS011;20140;49.356;8.812;2024-03-02T14:48:15;0.70;;;0.60;;
33836;SDS011;20140;49.356;8.812;2024-03-02T14:50:41;0.93;;;0.82;;
33836;SDS011;20140;49.356;8.812;2024-03-02T14:53:07;1.35;;;0.70;;
33836;SDS011;20140;49.356;8.812;2024-03-02T14:55:33;1.27;;;0.60;;
33836;SDS011;20140;49.356;8.812;2024-03-02T14:57:59;1.20;;;0.85;;
33836;SDS011;20140;49.356;8.812;2024-03-02T15:00:25;0.67;;;0.53;;